createdAt,value
2023-04-30T00:00:13.438Z,10.63
2023-04-30T00:05:18.225Z,10.63
2023-04-30T00:10:21.158Z,10.54
2023-04-30T00:15:24.098Z,10.67
2023-04-30T00:20:28.342Z,10.54
2023-04-30T00:25:31.254Z,10.47
2023-04-30T00:30:34.146Z,10.45
2023-04-30T00:35:39.335Z,10.44
2023-04-30T00:40:43.239Z,10.52
2023-04-30T00:45:46.173Z,10.44
2023-04-30T00:50:50.402Z,10.39
2023-04-30T00:55:54.332Z,10.30
2023-04-30T01:00:57.468Z,10.30
2023-04-30T01:06:01.755Z,10.17
2023-04-30T01:11:17.466Z,10.10
2023-04-30T01:16:24.439Z,10.00
2023-04-30T01:21:30.787Z,9.81
2023-04-30T01:26:50.031Z,9.76
2023-04-30T01:31:54.777Z,9.63
2023-04-30T01:37:12.953Z,9.60
2023-04-30T01:42:21.741Z,9.62
2023-04-30T01:47:35.163Z,9.35
2023-04-30T01:52:41.772Z,9.25
2023-04-30T01:57:58.920Z,9.17
2023-04-30T02:03:04.023Z,9.07
2023-04-30T02:08:07.895Z,8.88
2023-04-30T02:13:10.841Z,8.86
2023-04-30T02:18:15.093Z,8.94
2023-04-30T02:23:18.060Z,8.81
2023-04-30T02:28:20.932Z,8.75
2023-04-30T02:33:25.304Z,8.83
2023-04-30T02:38:28.297Z,8.75
2023-04-30T02:43:31.220Z,8.77
2023-04-30T02:48:35.825Z,8.55
2023-04-30T02:53:38.940Z,8.49
2023-04-30T02:58:42.041Z,8.43
2023-04-30T03:03:46.367Z,8.25
2023-04-30T03:08:49.270Z,8.16
2023-04-30T03:13:52.370Z,8.19
2023-04-30T03:18:56.662Z,8.09
2023-04-30T03:23:59.546Z,7.98
2023-04-30T03:29:02.411Z,7.82
2023-04-30T03:34:06.644Z,7.79
2023-04-30T03:39:10.502Z,7.95
2023-04-30T03:44:16.004Z,7.99
2023-04-30T03:49:20.419Z,8.05
2023-04-30T03:54:23.316Z,8.13
2023-04-30T03:59:26.631Z,8.08
2023-04-30T04:04:31.645Z,8.06
2023-04-30T04:09:34.688Z,8.02
2023-04-30T04:14:39.878Z,8.05
2023-04-30T04:19:44.157Z,8.20
2023-04-30T04:24:48.005Z,8.17
2023-04-30T04:29:57.021Z,8.59
2023-04-30T04:35:01.592Z,10.18
2023-04-30T04:40:06.064Z,10.80
2023-04-30T04:45:10.199Z,11.59
2023-04-30T04:50:16.246Z,12.25
2023-04-30T04:55:19.292Z,12.46
2023-04-30T05:00:23.316Z,12.35
2023-04-30T05:05:27.602Z,12.09
2023-04-30T05:10:30.545Z,11.73
2023-04-30T05:15:33.717Z,12.00
2023-04-30T05:20:37.980Z,11.42
2023-04-30T05:25:40.871Z,8.90
2023-04-30T05:30:43.755Z,8.74
2023-04-30T05:35:48.066Z,8.40
2023-04-30T05:40:51.025Z,8.54
2023-04-30T05:45:54.026Z,8.79
2023-04-30T05:50:58.328Z,9.30
2023-04-30T05:56:01.251Z,9.06
2023-04-30T06:01:05.330Z,9.95
2023-04-30T06:06:09.940Z,11.02
2023-04-30T06:11:13.269Z,9.96
2023-04-30T06:16:16.258Z,10.16
2023-04-30T06:21:20.581Z,10.92
2023-04-30T06:26:23.482Z,10.01
2023-04-30T06:31:26.462Z,12.76
2023-04-30T06:36:31.492Z,10.25
2023-04-30T06:41:34.539Z,11.18
2023-04-30T06:46:43.651Z,9.68
2023-04-30T06:51:48.224Z,11.23
2023-04-30T06:56:51.115Z,11.53
2023-04-30T07:01:54.105Z,10.56
2023-04-30T07:06:58.423Z,10.49
2023-04-30T07:12:01.622Z,11.16
2023-04-30T07:17:04.566Z,10.17
2023-04-30T07:22:08.867Z,9.18
2023-04-30T07:27:11.778Z,10.58
2023-04-30T07:32:15.035Z,9.36
2023-04-30T07:37:19.352Z,9.03
2023-04-30T07:42:22.258Z,9.99
2023-04-30T07:47:25.499Z,9.79
2023-04-30T07:52:29.788Z,10.60
2023-04-30T07:57:32.727Z,9.30
2023-04-30T08:02:37.396Z,8.96
2023-04-30T08:07:42.147Z,10.93
2023-04-30T08:12:45.174Z,11.38
2023-04-30T08:17:48.535Z,11.56
2023-04-30T08:22:52.952Z,9.50
2023-04-30T08:27:56.001Z,10.62
2023-04-30T08:32:59.277Z,11.10
2023-04-30T08:38:03.626Z,10.16
2023-04-30T08:43:07.818Z,11.21
2023-04-30T08:48:14.014Z,12.24
2023-04-30T08:53:21.572Z,10.88
2023-04-30T08:58:24.593Z,10.82
2023-04-30T09:03:28.397Z,12.28
2023-04-30T09:08:46.983Z,11.11
2023-04-30T09:13:52.663Z,10.98
2023-04-30T09:18:56.811Z,11.93
2023-04-30T09:24:02.828Z,12.38
2023-04-30T09:29:08.850Z,12.88
2023-04-30T09:34:12.042Z,12.07
2023-04-30T09:39:17.607Z,14.49
2023-04-30T09:44:30.160Z,15.35
2023-04-30T09:49:33.047Z,12.06
2023-04-30T09:54:38.259Z,14.03
2023-04-30T09:59:44.799Z,14.13
2023-04-30T10:04:55.063Z,12.43
2023-04-30T10:10:04.914Z,12.81
2023-04-30T10:15:14.381Z,12.76
2023-04-30T10:20:20.124Z,14.77
2023-04-30T10:25:28.165Z,15.82
2023-04-30T10:30:32.792Z,13.52
2023-04-30T10:35:44.762Z,13.59
2023-04-30T10:40:49.807Z,13.86
2023-04-30T10:45:53.109Z,14.03
2023-04-30T10:50:58.515Z,13.81
2023-04-30T10:56:06.903Z,13.99
2023-04-30T11:01:13.684Z,13.13
2023-04-30T11:06:20.409Z,13.83
2023-04-30T11:11:24.860Z,14.77
2023-04-30T11:16:30.848Z,12.77
2023-04-30T11:21:33.791Z,13.05
2023-04-30T11:27:05.886Z,13.41
2023-04-30T11:32:09.280Z,15.57
2023-04-30T11:37:14.770Z,13.12
2023-04-30T11:42:19.834Z,13.24
2023-04-30T11:47:22.812Z,14.75
2023-04-30T11:52:26.846Z,15.43
2023-04-30T11:57:41.778Z,16.01
2023-04-30T12:02:47.161Z,15.59
2023-04-30T12:07:52.038Z,15.48
2023-04-30T12:12:56.324Z,14.65
2023-04-30T12:18:00.550Z,15.36
2023-04-30T12:23:03.616Z,16.41
2023-04-30T12:28:07.967Z,13.76
2023-04-30T12:33:11.947Z,13.57
2023-04-30T12:38:18.708Z,14.78
2023-04-30T12:43:22.976Z,15.66
2023-04-30T12:48:26.991Z,16.17
2023-04-30T12:53:30.390Z,15.40
2023-04-30T12:58:35.355Z,13.81
2023-04-30T13:03:39.860Z,14.64
2023-04-30T13:08:57.140Z,16.34
2023-04-30T13:14:02.499Z,16.72
2023-04-30T13:19:05.583Z,15.57
2023-04-30T13:24:08.526Z,14.77
2023-04-30T13:29:12.972Z,13.99
2023-04-30T13:34:15.995Z,15.17
2023-04-30T13:39:19.692Z,15.10
2023-04-30T13:44:24.277Z,14.67
2023-04-30T13:49:27.183Z,15.20
2023-04-30T13:54:30.078Z,15.22
2023-04-30T13:59:34.727Z,16.17
2023-04-30T14:04:38.154Z,15.90
2023-04-30T14:09:41.106Z,15.93
2023-04-30T14:14:45.560Z,15.06
2023-04-30T14:19:48.463Z,15.51
2023-04-30T14:24:51.557Z,14.65
2023-04-30T14:29:56.218Z,14.76
2023-04-30T14:34:59.373Z,14.89
2023-04-30T14:40:02.234Z,14.87
2023-04-30T14:45:08.163Z,14.36
2023-04-30T14:50:11.526Z,14.48
2023-04-30T14:55:14.597Z,15.43
2023-04-30T15:00:19.150Z,16.00
2023-04-30T15:05:22.239Z,14.72
2023-04-30T15:10:25.159Z,14.44
2023-04-30T15:15:29.764Z,14.60
2023-04-30T15:20:32.857Z,15.49
2023-04-30T15:25:35.876Z,15.85
2023-04-30T15:30:40.204Z,15.84
2023-04-30T15:35:43.086Z,14.67
2023-04-30T15:40:45.992Z,15.17
2023-04-30T15:45:50.282Z,14.92
2023-04-30T15:50:53.187Z,14.22
2023-04-30T15:55:57.162Z,14.29
2023-04-30T16:01:01.975Z,14.18
2023-04-30T16:06:05.112Z,14.69
2023-04-30T16:11:08.179Z,14.76
2023-04-30T16:16:12.428Z,15.17
2023-04-30T16:21:15.317Z,15.00
2023-04-30T16:26:18.968Z,14.54
2023-04-30T16:31:23.406Z,14.41
2023-04-30T16:36:28.045Z,14.74
2023-04-30T16:41:31.072Z,14.73
2023-04-30T16:46:36.153Z,14.01
2023-04-30T16:51:39.191Z,14.45
2023-04-30T16:56:42.104Z,13.92
2023-04-30T17:01:46.736Z,13.76
2023-04-30T17:06:49.894Z,14.12
2023-04-30T17:11:52.861Z,14.10
2023-04-30T17:16:57.415Z,14.08
2023-04-30T17:22:00.357Z,13.94
2023-04-30T17:27:05.589Z,14.07
2023-04-30T17:32:11.074Z,14.11
2023-04-30T17:37:13.973Z,13.75
2023-04-30T17:42:17.937Z,13.78
2023-04-30T17:47:22.967Z,13.74
2023-04-30T17:52:26.173Z,13.45
2023-04-30T17:57:29.189Z,13.48
2023-04-30T18:02:33.549Z,13.30
2023-04-30T18:07:36.672Z,13.07
2023-04-30T18:12:39.778Z,12.93
2023-04-30T18:17:44.073Z,12.74
2023-04-30T18:22:46.935Z,12.42
2023-04-30T18:27:49.886Z,12.28
2023-04-30T18:32:54.129Z,12.08
2023-04-30T18:37:57.522Z,11.81
2023-04-30T18:43:00.457Z,11.77
2023-04-30T18:48:05.206Z,11.51
2023-04-30T18:53:08.185Z,11.37
2023-04-30T18:58:11.102Z,11.04
2023-04-30T19:03:15.525Z,11.06
2023-04-30T19:08:18.475Z,10.94
2023-04-30T19:13:21.531Z,10.83
2023-04-30T19:18:25.813Z,10.66
2023-04-30T19:23:30.219Z,10.57
2023-04-30T19:28:33.234Z,10.16
2023-04-30T19:33:39.527Z,10.29
2023-04-30T19:38:42.903Z,10.23
2023-04-30T19:43:49.141Z,10.02
2023-04-30T19:48:53.770Z,9.90
2023-04-30T19:53:58.974Z,9.84
2023-04-30T19:59:01.850Z,9.75
2023-04-30T20:04:06.934Z,9.61
2023-04-30T20:09:10.003Z,9.31
2023-04-30T20:14:12.921Z,9.35
2023-04-30T20:19:17.142Z,9.25
2023-04-30T20:24:21.624Z,9.08
2023-04-30T20:29:24.592Z,8.94
2023-04-30T20:34:29.103Z,8.96
2023-04-30T20:39:32.111Z,8.56
2023-04-30T20:44:35.070Z,8.51
2023-04-30T20:49:39.570Z,8.39
2023-04-30T20:54:42.849Z,8.35
2023-04-30T20:59:45.845Z,8.17
2023-04-30T21:04:50.144Z,8.10
2023-04-30T21:09:53.246Z,8.10
2023-04-30T21:14:56.409Z,8.00
2023-04-30T21:20:00.958Z,7.91
2023-04-30T21:25:03.889Z,7.77
2023-04-30T21:30:08.392Z,7.57
2023-04-30T21:35:12.784Z,7.50
2023-04-30T21:40:15.781Z,7.32
2023-04-30T21:45:19.783Z,7.19
2023-04-30T21:50:24.538Z,7.01
2023-04-30T21:55:27.734Z,6.99
2023-04-30T22:00:30.683Z,7.05
2023-04-30T22:05:34.975Z,6.85
2023-04-30T22:10:37.893Z,6.78
2023-04-30T22:15:48.266Z,6.67
2023-04-30T22:20:53.827Z,6.45
2023-04-30T22:25:56.701Z,6.29
2023-04-30T22:31:00.007Z,6.39
2023-04-30T22:36:05.151Z,6.28
2023-04-30T22:41:08.549Z,6.35
2023-04-30T22:46:11.694Z,6.16
2023-04-30T22:51:16.068Z,6.13
2023-04-30T22:56:18.997Z,5.99
2023-04-30T23:01:22.008Z,5.86
2023-04-30T23:06:27.412Z,5.85
2023-04-30T23:11:30.418Z,5.71
2023-04-30T23:16:33.494Z,5.63
2023-04-30T23:21:37.811Z,5.53
2023-04-30T23:26:41.360Z,5.53
2023-04-30T23:31:44.257Z,5.34
2023-04-30T23:36:48.567Z,5.29
2023-04-30T23:41:52.156Z,5.17
2023-04-30T23:46:55.958Z,5.15
2023-04-30T23:52:00.301Z,5.13
2023-04-30T23:57:03.324Z,5.03
